Terminal Aerodrome Forecast
Issued by NWS Houston/Galveston, TX

Current Version | Previous Version | Text Only | Print | Product List | Glossary On
Versions: 1 2 3 4 5 6 7 8 9 10 11 12 13 14 15 16 17 18 19 20 21 22 23 24 25 26 27 28 29 30 31 32 33 34 35 36 37 38
000
FTUS44 KHGX 242320
TAFGLS
TAF
KGLS 242320Z 2500/2524 15017KT P6SM SCT025 BKN090
      TEMPO 2500/2503 BKN025
     FM250400 17014KT P6SM VCSH SCT010 BKN030
      TEMPO 2504/2507 TSRA BKN030CB
     FM250700 18014KT P6SM SCT010 BKN030
     FM251100 21008KT P6SM VCSH BKN250 PROB30 2512/2514 TSRA
      BKN030CB
     FM251500 24010KT P6SM SCT250
     FM251800 27011KT P6SM SCT250
     FM252100 21010KT P6SM SKC=

USA.gov is the U.S. government's official web portal to all federal, state and local government web resources and services.